Time;durP1;ratioP1;P1;durP2;ratioP2;P2;SDS_P1;SDS_P2;PMS_P1;PMS_P2;Temp;Humidity;BMP_temperature;BMP_pressure;BME280_temperature;BME280_humidity;BME280_pressure;Samples;Min_cycle;Max_cycle;Signal;HPM_P1;HPM_P2
2021/12/24 00:01:07;;;;;;;21.13;2.97;;;6.50;99.90;;;;;;5068939;28;20491;-62
2021/12/24 00:03:36;;;;;;;19.67;3.00;;;6.50;99.90;;;;;;5066947;28;20060;-61
2021/12/24 00:06:05;;;;;;;14.40;2.55;;;6.50;99.90;;;;;;5067748;28;20049;-59
2021/12/24 00:08:34;;;;;;;18.55;2.95;;;6.50;99.90;;;;;;5068741;28;20049;-59
2021/12/24 00:11:03;;;;;;;20.83;3.63;;;6.50;99.90;;;;;;5070150;28;20052;-59
2021/12/24 00:13:38;;;;;;;19.83;2.35;;;6.50;99.90;;;;;;5070330;28;20510;-60
2021/12/24 00:18:47;;;;;;;15.43;2.35;;;6.50;99.90;;;;;;5070041;28;20386;-59
2021/12/24 00:35:22;;;;;;;26.63;2.70;;;6.50;99.90;;;;;;5069858;28;20048;-60
2021/12/24 00:37:49;;;;;;;22.33;3.08;;;6.40;99.90;;;;;;5050971;28;20048;-60
2021/12/24 00:40:19;;;;;;;16.00;3.15;;;6.40;99.90;;;;;;5048289;28;20056;-63
2021/12/24 00:42:49;;;;;;;;;;;6.30;99.90;;;;;;5048763;28;20045;-60
2021/12/24 00:45:19;;;;;;;20.10;2.83;;;6.20;99.90;;;;;;5031756;28;19921;-60
2021/12/24 00:47:48;;;;;;;20.15;3.03;;;6.10;99.90;;;;;;5037903;28;20060;-61
2021/12/24 00:50:21;;;;;;;18.70;2.57;;;6.00;99.90;;;;;;5069590;28;20045;-61
2021/12/24 00:52:56;;;;;;;17.13;2.95;;;5.90;99.90;;;;;;5051913;28;20300;-60
2021/12/24 00:55:26;;;;;;;17.48;2.25;;;5.80;99.90;;;;;;5052541;28;20451;-60
2021/12/24 00:57:57;;;;;;;22.27;2.58;;;5.70;99.90;;;;;;5034401;28;20045;-60
2021/12/24 01:00:30;;;;;;;14.85;2.10;;;5.60;99.90;;;;;;5051184;28;20131;-60
2021/12/24 01:03:01;;;;;;;23.10;3.05;;;5.60;99.90;;;;;;5048582;28;20052;-60
2021/12/24 01:05:32;;;;;;;58.60;3.85;;;5.40;99.90;;;;;;5048063;28;20507;-62
2021/12/24 01:08:01;;;;;;;114.10;8.05;;;5.40;99.90;;;;;;5049941;28;20048;-61
2021/12/24 01:10:32;;;;;;;25.77;3.70;;;5.30;99.90;;;;;;5015201;28;20053;-60
2021/12/24 01:13:00;;;;;;;35.33;2.53;;;5.20;99.90;;;;;;5031416;28;20041;-60
2021/12/24 01:15:30;;;;;;;9.63;1.50;;;5.20;99.90;;;;;;5049280;28;20381;-60
2021/12/24 01:18:09;;;;;;;11.80;2.03;;;5.10;99.90;;;;;;5056584;28;20037;-62
2021/12/24 01:25:59;;;;;;;12.80;2.97;;;4.80;99.90;;;;;;5064397;28;20045;-64
2021/12/24 01:28:42;;;;;;;28.58;3.83;;;4.80;99.90;;;;;;5041884;28;20056;-64
2021/12/24 01:42:44;;;;;;;9.57;3.20;;;4.50;99.90;;;;;;5049088;28;20060;-63
2021/12/24 01:45:27;;;;;;;105.18;7.00;;;4.50;99.90;;;;;;5048786;28;20037;-63
2021/12/24 01:47:58;;;;;;;5.85;2.22;;;4.40;99.90;;;;;;5055462;28;20045;-63
2021/12/24 01:50:33;;;;;;;46.53;4.47;;;4.30;99.90;;;;;;5050940;28;20187;-63
2021/12/24 01:53:03;;;;;;;18.38;3.20;;;4.30;99.90;;;;;;5050888;28;20403;-62
2021/12/24 01:55:34;;;;;;;26.73;3.85;;;4.20;99.90;;;;;;5046594;28;20415;-63
2021/12/24 01:58:02;;;;;;;10.30;3.10;;;4.10;99.90;;;;;;5033798;28;20396;-59
2021/12/24 02:00:39;;;;;;;8.27;3.33;;;4.10;99.90;;;;;;5050519;28;20052;-60
2021/12/24 02:03:10;;;;;;;13.88;3.55;;;4.00;99.90;;;;;;5050541;28;20037;-59
2021/12/24 02:05:41;;;;;;;28.02;5.22;;;4.00;99.90;;;;;;5050357;28;20036;-60
2021/12/24 02:08:10;;;;;;;15.65;4.15;;;3.90;99.90;;;;;;5033006;28;20049;-60
2021/12/24 02:10:38;;;;;;;11.20;3.30;;;3.90;99.90;;;;;;5000209;28;20052;-60
2021/12/24 02:13:07;;;;;;;15.95;4.45;;;3.80;99.90;;;;;;5030094;28;20272;-60
2021/12/24 02:29:26;;;;;;;19.45;5.50;;;3.80;99.90;;;;;;5082769;28;20060;-60
2021/12/24 02:31:53;;;;;;;25.10;4.18;;;3.90;99.90;;;;;;5056607;28;20056;-62
2021/12/24 02:34:24;;;;;;;25.20;3.92;;;3.90;99.90;;;;;;5033379;28;20496;-59
2021/12/24 02:36:51;;;;;;;42.05;6.25;;;4.00;99.90;;;;;;5033222;28;20041;-59
2021/12/24 02:39:19;;;;;;;29.35;5.35;;;4.00;99.90;;;;;;5047034;28;20044;-60
2021/12/24 02:41:47;;;;;;;37.85;6.28;;;4.00;99.90;;;;;;5050128;28;20045;-60
2021/12/24 02:44:15;;;;;;;30.73;4.88;;;4.10;99.90;;;;;;5051485;28;20072;-60
2021/12/24 02:47:09;;;;;;;27.33;6.93;;;4.10;99.90;;;;;;5032890;28;20065;-60
2021/12/24 02:55:15;;;;;;;23.90;5.45;;;4.30;99.90;;;;;;5055293;28;20037;-60
2021/12/24 02:57:44;;;;;;;21.90;6.63;;;4.30;99.90;;;;;;5070150;28;20053;-60
2021/12/24 03:00:19;;;;;;;20.63;6.50;;;4.40;99.90;;;;;;5055215;28;20049;-60
2021/12/24 03:02:48;;;;;;;17.60;6.32;;;4.40;99.90;;;;;;5055187;28;20064;-60
2021/12/24 03:05:18;;;;;;;24.02;6.97;;;4.50;99.90;;;;;;5069013;28;20053;-60
2021/12/24 03:07:46;;;;;;;;;;;4.50;99.90;;;;;;5021276;28;20041;-62
2021/12/24 03:10:18;;;;;;;17.77;6.13;;;4.60;99.90;;;;;;5037197;28;19920;-61
2021/12/24 03:12:48;;;;;;;24.17;7.47;;;4.70;99.90;;;;;;5054751;28;20053;-62
2021/12/24 03:15:17;;;;;;;29.45;7.70;;;4.70;99.90;;;;;;5037098;28;20056;-61
2021/12/24 03:17:51;;;;;;;23.95;6.47;;;4.80;99.90;;;;;;5070021;28;20376;-65
2021/12/24 03:20:19;;;;;;;32.83;5.93;;;4.80;99.90;;;;;;5037151;28;20041;-65
2021/12/24 03:25:35;;;;;;;30.08;6.20;;;4.90;99.90;;;;;;5053345;28;20050;-65
2021/12/24 03:28:03;;;;;;;22.00;6.03;;;4.90;99.90;;;;;;5070092;28;20033;-65
2021/12/24 03:30:31;;;;;;;26.67;6.60;;;5.00;99.90;;;;;;5070012;28;20045;-62
2021/12/24 03:32:59;;;;;;;17.27;7.38;;;5.00;99.90;;;;;;5054518;28;20045;-65
2021/12/24 03:35:26;;;;;;;21.70;6.18;;;5.00;99.90;;;;;;5069800;28;20488;-66
2021/12/24 03:37:55;;;;;;;29.42;6.35;;;5.00;99.90;;;;;;5036590;28;20053;-65
2021/12/24 03:40:24;;;;;;;16.10;5.60;;;5.00;99.90;;;;;;5035696;28;20064;-66
2021/12/24 03:42:52;;;;;;;15.50;5.68;;;5.10;99.90;;;;;;5069988;28;20475;-66
2021/12/24 03:45:26;;;;;;;26.77;6.47;;;5.10;99.90;;;;;;5020067;28;20049;-65
2021/12/24 03:48:01;;;;;;;15.60;5.53;;;5.10;99.90;;;;;;5036622;28;20036;-65
2021/12/24 03:50:49;;;;;;;25.88;7.63;;;5.10;99.90;;;;;;5036546;28;20045;-61
2021/12/24 03:56:04;;;;;;;23.70;7.88;;;5.10;99.90;;;;;;5069614;28;20145;-62
2021/12/24 03:58:32;;;;;;;27.35;7.68;;;5.10;99.90;;;;;;5069196;28;20041;-64
2021/12/24 04:01:18;;;;;;;36.03;8.13;;;5.20;99.90;;;;;;5054562;28;20583;-62
2021/12/24 04:04:25;;;;;;;27.70;7.65;;;5.20;99.90;;;;;;5032561;28;20049;-62
2021/12/24 04:06:56;;;;;;;27.30;7.95;;;5.20;99.90;;;;;;5053975;28;20053;-62
2021/12/24 04:10:03;;;;;;;24.52;7.20;;;5.20;99.90;;;;;;5053671;28;20488;-62
2021/12/24 04:12:50;;;;;;;30.17;7.25;;;5.20;99.90;;;;;;5053897;28;20056;-67
2021/12/24 04:15:18;;;;;;;22.40;7.20;;;5.30;99.90;;;;;;5068751;28;20037;-64
2021/12/24 04:17:46;;;;;;;33.03;7.22;;;5.30;99.90;;;;;;5053778;28;20480;-66
2021/12/24 04:25:47;;;;;;;24.65;7.15;;;5.30;99.90;;;;;;5053667;28;20051;-65
2021/12/24 04:28:14;;;;;;;17.67;7.30;;;5.40;99.90;;;;;;5069164;28;20037;-66
2021/12/24 04:30:48;;;;;;;23.88;8.23;;;5.40;99.90;;;;;;5035928;28;20055;-62
2021/12/24 04:33:51;;;;;;;29.13;8.73;;;5.40;99.90;;;;;;5053459;28;20048;-62
2021/12/24 05:03:32;;;;;;;34.40;7.00;;;5.80;99.90;;;;;;5068426;28;20041;-61
2021/12/24 05:09:22;;;;;;;30.45;6.82;;;5.90;99.90;;;;;;5067385;28;20053;-61
2021/12/24 05:11:26;;;;;;;29.65;6.60;;;5.90;99.90;;;;;;5031152;28;20068;-61
2021/12/24 05:13:54;;;;;;;26.55;7.75;;;5.90;99.90;;;;;;5052573;28;20041;-61
2021/12/24 05:16:37;;;;;;;36.65;7.40;;;5.90;99.90;;;;;;5052466;28;20037;-62
2021/12/24 05:22:09;;;;;;;25.08;6.43;;;5.90;99.90;;;;;;5052451;28;20041;-59
2021/12/24 05:24:39;;;;;;;27.85;6.95;;;5.90;99.90;;;;;;5067903;28;20060;-59
2021/12/24 05:27:07;;;;;;;24.20;6.78;;;5.90;99.90;;;;;;5034654;28;20063;-61
2021/12/24 05:29:35;;;;;;;29.52;7.55;;;5.90;99.90;;;;;;5033924;28;20053;-59
2021/12/24 05:32:05;;;;;;;33.80;7.15;;;5.90;99.90;;;;;;5034563;28;20045;-61
2021/12/24 05:34:34;;;;;;;28.27;6.72;;;5.80;99.90;;;;;;5034633;28;20053;-61
2021/12/24 05:37:01;;;;;;;17.00;5.82;;;5.80;99.90;;;;;;5067630;28;20064;-65
2021/12/24 05:39:29;;;;;;;27.88;5.95;;;5.80;99.90;;;;;;5034273;28;20056;-62
2021/12/24 05:41:58;;;;;;;20.25;6.15;;;5.80;99.90;;;;;;5050781;28;20067;-62
2021/12/24 05:44:27;;;;;;;29.92;6.75;;;5.80;99.90;;;;;;5034429;28;20064;-62
2021/12/24 05:47:09;;;;;;;28.05;6.32;;;5.70;99.90;;;;;;5066009;28;20043;-62
2021/12/24 05:49:43;;;;;;;21.30;6.00;;;5.70;99.90;;;;;;5031082;28;20041;-62
2021/12/24 05:52:29;;;;;;;25.17;4.97;;;5.70;99.90;;;;;;5043764;28;20052;-62
2021/12/24 05:55:18;;;;;;;25.70;6.10;;;5.60;99.90;;;;;;5040818;28;20056;-62
2021/12/24 05:57:50;;;;;;;19.85;4.95;;;5.60;99.90;;;;;;5054490;28;20367;-65
2021/12/24 06:00:21;;;;;;;23.63;5.40;;;5.60;99.90;;;;;;5050165;28;20048;-65
2021/12/24 06:02:50;;;;;;;23.73;6.47;;;5.50;99.90;;;;;;5042330;28;20484;-63
2021/12/24 06:05:18;;;;;;;29.05;5.93;;;5.50;99.90;;;;;;5065019;28;20056;-65
2021/12/24 06:07:45;;;;;;;17.98;4.88;;;5.40;99.90;;;;;;5047412;28;20040;-64
2021/12/24 06:10:13;;;;;;;29.25;6.45;;;5.40;99.90;;;;;;5050732;28;20052;-61
2021/12/24 06:12:41;;;;;;;22.77;5.25;;;5.40;99.90;;;;;;5064658;28;20071;-62
2021/12/24 06:15:09;;;;;;;20.92;6.72;;;5.30;99.90;;;;;;5065034;28;20048;-64
2021/12/24 06:17:38;;;;;;;28.35;6.30;;;5.30;99.90;;;;;;5064141;28;20128;-61
2021/12/24 06:20:08;;;;;;;33.58;7.28;;;5.20;99.90;;;;;;5048064;28;20041;-64
2021/12/24 06:22:36;;;;;;;36.88;6.50;;;5.20;99.90;;;;;;5037484;28;20052;-62
2021/12/24 06:25:04;;;;;;;18.42;6.03;;;5.20;99.90;;;;;;5067972;28;20049;-63
2021/12/24 06:27:32;;;;;;;26.63;6.47;;;5.20;99.90;;;;;;5049822;28;20040;-60
2021/12/24 06:29:59;;;;;;;24.58;6.35;;;5.20;99.90;;;;;;5068117;28;20052;-65
2021/12/24 06:32:27;;;;;;;33.55;6.05;;;5.20;99.90;;;;;;5045687;28;20071;-63
2021/12/24 06:34:55;;;;;;;23.95;5.82;;;5.10;99.90;;;;;;5044574;28;20059;-65
2021/12/24 06:37:23;;;;;;;32.28;6.25;;;5.00;99.90;;;;;;5050465;28;20045;-65
2021/12/24 06:39:51;;;;;;;22.98;5.47;;;5.00;99.90;;;;;;5067836;28;20376;-63
2021/12/24 06:42:19;;;;;;;31.38;7.05;;;4.90;99.90;;;;;;5064452;28;20053;-60
2021/12/24 06:44:47;;;;;;;27.42;6.38;;;4.90;99.90;;;;;;5064124;28;20075;-62
2021/12/24 06:47:15;;;;;;;25.00;5.45;;;4.90;99.90;;;;;;5066973;28;20048;-61
2021/12/24 06:49:43;;;;;;;20.83;4.38;;;4.90;99.90;;;;;;5049245;28;20060;-60
2021/12/24 06:52:10;;;;;;;23.05;5.65;;;4.90;99.90;;;;;;5017765;28;20063;-65
2021/12/24 06:54:38;;;;;;;28.13;5.25;;;5.00;99.90;;;;;;5067814;28;20040;-66
2021/12/24 06:57:15;;;;;;;22.80;5.80;;;5.10;99.90;;;;;;5033386;28;20063;-65
2021/12/24 06:59:44;;;;;;;29.20;6.78;;;5.10;99.90;;;;;;5049984;28;20052;-66
2021/12/24 07:02:12;;;;;;;26.70;5.80;;;5.10;99.90;;;;;;5046899;28;20052;-66
2021/12/24 07:04:40;;;;;;;22.50;4.78;;;5.00;99.90;;;;;;5046964;28;20045;-65
2021/12/24 07:07:10;;;;;;;25.45;4.95;;;5.00;99.90;;;;;;5048263;28;20044;-66
2021/12/24 07:09:42;;;;;;;19.98;6.38;;;5.00;99.90;;;;;;5068081;28;20048;-66
2021/12/24 07:12:14;;;;;;;21.50;4.95;;;5.00;99.90;;;;;;5067625;28;20515;-66
2021/12/24 07:14:42;;;;;;;25.73;5.93;;;4.90;99.90;;;;;;5049344;28;20045;-64
2021/12/24 07:17:10;;;;;;;22.50;7.13;;;4.90;99.90;;;;;;5029843;28;20056;-65
2021/12/24 07:19:38;;;;;;;28.73;10.23;;;4.90;99.90;;;;;;5046223;28;20427;-62
2021/12/24 07:22:07;;;;;;;40.63;11.48;;;4.90;99.90;;;;;;5063913;28;20044;-64
2021/12/24 07:24:36;;;;;;;40.13;9.70;;;4.90;99.90;;;;;;5046044;28;20407;-61
2021/12/24 07:27:04;;;;;;;39.53;9.48;;;4.90;99.90;;;;;;5046669;28;20310;-61
2021/12/24 07:29:32;;;;;;;26.27;9.18;;;4.90;99.90;;;;;;5067624;28;20400;-60
2021/12/24 07:31:59;;;;;;;24.10;8.23;;;4.90;99.90;;;;;;5067011;28;20045;-61
2021/12/24 07:34:27;;;;;;;24.77;7.50;;;4.90;99.90;;;;;;5055493;28;20048;-60
2021/12/24 07:36:55;;;;;;;27.00;8.27;;;4.90;99.90;;;;;;5019751;28;20049;-60
2021/12/24 07:39:22;;;;;;;35.65;8.75;;;4.90;99.90;;;;;;5029779;28;20048;-62
2021/12/24 07:41:51;;;;;;;36.40;7.80;;;4.90;99.90;;;;;;5031073;28;20045;-61
2021/12/24 07:44:19;;;;;;;24.45;6.68;;;4.90;99.90;;;;;;5031343;28;20523;-62
2021/12/24 07:46:56;;;;;;;23.38;7.38;;;4.90;99.90;;;;;;5029976;28;20400;-62
2021/12/24 07:54:24;;;;;;;26.38;7.18;;;4.90;99.90;;;;;;5030570;28;20050;-61
2021/12/24 07:56:51;;;;;;;29.90;6.40;;;4.80;99.90;;;;;;5028740;28;20048;-61
2021/12/24 07:59:20;;;;;;;26.30;7.10;;;4.70;99.90;;;;;;5027287;28;20400;-62
2021/12/24 08:01:48;;;;;;;26.55;7.40;;;4.70;99.90;;;;;;5027603;28;20050;-62
2021/12/24 08:04:16;;;;;;;31.75;7.30;;;4.70;99.90;;;;;;5022314;28;20368;-61
2021/12/24 08:06:44;;;;;;;27.23;6.03;;;4.60;99.90;;;;;;5007525;28;20354;-61
2021/12/24 08:09:11;;;;;;;22.00;6.15;;;4.60;99.90;;;;;;5025421;28;20373;-62
2021/12/24 08:11:40;;;;;;;38.97;7.13;;;4.50;99.90;;;;;;5027216;28;20049;-61
2021/12/24 08:14:08;;;;;;;26.23;7.63;;;4.50;99.90;;;;;;5025489;28;20061;-62
2021/12/24 08:16:36;;;;;;;30.13;6.80;;;4.40;99.90;;;;;;5026116;28;20547;-63
2021/12/24 08:19:04;;;;;;;29.13;6.78;;;4.40;99.90;;;;;;5019690;28;20053;-61
2021/12/24 08:21:32;;;;;;;32.58;8.95;;;4.40;99.90;;;;;;5007416;28;20050;-61
2021/12/24 08:23:59;;;;;;;55.08;11.52;;;4.40;99.90;;;;;;5023117;28;20053;-61
2021/12/24 08:26:29;;;;;;;141.02;14.05;;;4.40;99.90;;;;;;5027063;28;20045;-63
2021/12/24 08:28:57;;;;;;;189.40;15.10;;;4.30;99.90;;;;;;5026269;28;20049;-62
2021/12/24 08:31:25;;;;;;;169.18;16.00;;;4.40;99.90;;;;;;5026550;28;20052;-61
2021/12/24 08:33:52;;;;;;;257.30;16.15;;;4.40;99.90;;;;;;5021298;28;20060;-59
2021/12/24 08:36:20;;;;;;;179.15;15.55;;;4.40;99.90;;;;;;5017812;28;20048;-62
2021/12/24 08:38:48;;;;;;;308.50;21.65;;;4.40;99.90;;;;;;5061239;28;20048;-60
2021/12/24 08:41:16;;;;;;;218.52;16.48;;;4.40;99.90;;;;;;5066671;28;20047;-61
2021/12/24 08:43:44;;;;;;;213.07;14.73;;;4.30;99.90;;;;;;5066473;28;20051;-60
2021/12/24 08:46:11;;;;;;;227.73;15.95;;;4.30;99.90;;;;;;5066302;28;20053;-60
2021/12/24 08:48:40;;;;;;;257.20;15.38;;;4.30;99.90;;;;;;5063422;28;21016;-61
2021/12/24 08:51:08;;;;;;;275.50;16.00;;;4.30;99.90;;;;;;5028284;28;20484;-60
2021/12/24 08:53:36;;;;;;;304.02;18.13;;;4.40;99.90;;;;;;5060805;28;20527;-60
2021/12/24 08:56:04;;;;;;;350.20;20.40;;;4.40;99.90;;;;;;5048562;28;20044;-60
2021/12/24 08:58:37;;;;;;;121.20;11.98;;;4.40;99.90;;;;;;5066303;28;20047;-60
2021/12/24 09:01:05;;;;;;;264.33;14.70;;;4.40;99.90;;;;;;5066072;28;20395;-61
2021/12/24 09:03:33;;;;;;;222.70;19.92;;;4.40;99.90;;;;;;5065291;28;20045;-60
2021/12/24 09:06:01;;;;;;;144.57;12.48;;;4.50;99.90;;;;;;5045899;28;20044;-60
2021/12/24 09:08:29;;;;;;;205.10;15.32;;;4.50;99.90;;;;;;5057749;28;20479;-60
2021/12/24 09:10:57;;;;;;;206.98;13.05;;;4.50;99.90;;;;;;5047989;28;20146;-60
2021/12/24 09:13:25;;;;;;;288.52;16.00;;;4.60;99.90;;;;;;5065386;28;20044;-60
2021/12/24 09:15:56;;;;;;;227.40;15.95;;;4.60;99.90;;;;;;5048070;28;20049;-60
2021/12/24 09:18:24;;;;;;;238.57;18.15;;;4.60;99.90;;;;;;5047889;28;20506;-60
2021/12/24 09:20:54;;;;;;;187.35;15.75;;;4.60;99.90;;;;;;5046855;28;20037;-60
2021/12/24 09:23:23;;;;;;;234.50;17.58;;;4.50;99.90;;;;;;5058244;28;20044;-62
2021/12/24 09:26:12;;;;;;;;;;;4.50;99.90;;;;;;5066110;28;20295;-60
2021/12/24 09:28:40;;;;;;;175.07;13.57;;;4.60;99.90;;;;;;5047277;28;19943;-61
2021/12/24 09:31:08;;;;;;;155.70;12.07;;;4.60;99.90;;;;;;5047857;28;20056;-61
2021/12/24 09:33:36;;;;;;;195.30;15.50;;;4.60;99.90;;;;;;5065298;28;20480;-61
2021/12/24 09:36:04;;;;;;;199.65;14.25;;;4.60;99.90;;;;;;5045937;28;20053;-61
2021/12/24 09:38:35;;;;;;;197.85;13.48;;;4.60;99.90;;;;;;5039581;28;20052;-62
2021/12/24 09:41:06;;;;;;;203.75;15.07;;;4.60;99.90;;;;;;5030879;28;20055;-62
2021/12/24 09:43:37;;;;;;;152.40;13.48;;;4.70;99.90;;;;;;5047300;28;20063;-62
2021/12/24 09:46:08;;;;;;;180.02;13.38;;;4.70;99.90;;;;;;5047129;28;20056;-64
2021/12/24 09:48:39;;;;;;;130.18;11.13;;;4.60;99.90;;;;;;5065270;28;20048;-68
2021/12/24 09:51:08;;;;;;;169.00;15.70;;;4.70;99.90;;;;;;5046986;28;20048;-61
2021/12/24 09:53:39;;;;;;;189.35;15.00;;;4.70;99.90;;;;;;5064938;28;20068;-65
2021/12/24 09:56:07;;;;;;;187.63;13.88;;;4.70;99.90;;;;;;5046921;28;20032;-64
2021/12/24 09:58:35;;;;;;;236.25;14.00;;;4.70;99.90;;;;;;5047334;28;20041;-67
2021/12/24 10:01:03;;;;;;;212.18;14.13;;;4.70;99.90;;;;;;5065174;28;20051;-64
2021/12/24 10:03:34;;;;;;;205.73;13.93;;;4.70;99.90;;;;;;5064150;28;20044;-65
2021/12/24 10:06:04;;;;;;;266.10;16.20;;;4.70;99.90;;;;;;5047301;28;20419;-67
2021/12/24 10:08:32;;;;;;;;;;;4.70;99.90;;;;;;5057581;28;20044;-66
2021/12/24 10:11:09;;;;;;;166.88;13.32;;;4.70;99.90;;;;;;5047033;28;20183;-68
2021/12/24 10:13:44;;;;;;;157.02;11.98;;;4.80;99.90;;;;;;5064295;28;20064;-67
2021/12/24 10:16:13;;;;;;;156.55;10.20;;;4.80;99.90;;;;;;5065140;28;20346;-62
2021/12/24 10:19:08;;;;;;;206.07;12.18;;;4.80;99.90;;;;;;5064451;28;20048;-61
2021/12/24 10:21:38;;;;;;;100.07;8.13;;;4.80;99.90;;;;;;5028365;28;20056;-62
2021/12/24 10:24:08;;;;;;;198.15;12.57;;;4.70;99.90;;;;;;5044445;28;20060;-63
2021/12/24 10:26:46;;;;;;;167.40;10.82;;;4.80;99.90;;;;;;5064711;28;20048;-62
2021/12/24 10:29:20;;;;;;;129.38;10.75;;;4.80;99.90;;;;;;5046340;28;20049;-63
2021/12/24 10:31:56;;;;;;;171.65;11.23;;;4.80;99.90;;;;;;5064405;28;20032;-61
2021/12/24 10:34:33;;;;;;;116.22;10.68;;;4.80;99.90;;;;;;5061470;28;20048;-63
2021/12/24 10:37:13;;;;;;;54.63;7.20;;;4.80;99.90;;;;;;5012004;28;20398;-62
2021/12/24 10:39:59;;;;;;;38.53;6.30;;;4.90;99.90;;;;;;5003545;28;20065;-64
2021/12/24 10:42:38;;;;;;;54.38;7.72;;;4.90;99.90;;;;;;5008380;28;20038;-62
2021/12/24 10:45:16;;;;;;;52.97;8.05;;;4.90;99.90;;;;;;5024523;28;20053;-64
2021/12/24 10:47:45;;;;;;;65.82;8.60;;;5.00;99.90;;;;;;5024323;28;20417;-61
2021/12/24 10:55:38;;;;;;;104.72;10.18;;;5.00;99.90;;;;;;5023177;28;20068;-62
2021/12/24 10:58:15;;;;;;;82.55;8.10;;;5.00;99.90;;;;;;5022984;28;20041;-62
2021/12/24 11:00:48;;;;;;;108.80;10.02;;;5.10;99.90;;;;;;5024432;28;20042;-64
2021/12/24 11:03:23;;;;;;;106.45;10.38;;;5.10;99.90;;;;;;5024053;28;20484;-64
2021/12/24 11:05:53;;;;;;;151.23;15.15;;;5.10;99.90;;;;;;5012669;28;20370;-62
2021/12/24 11:08:25;;;;;;;146.20;13.80;;;5.20;99.90;;;;;;5014301;28;20041;-64
2021/12/24 11:10:55;;;;;;;106.95;10.38;;;5.20;99.90;;;;;;5011119;28;20048;-61
2021/12/24 11:13:44;;;;;;;118.20;11.05;;;5.30;99.90;;;;;;5009967;28;20049;-62
2021/12/24 11:16:16;;;;;;;78.90;8.07;;;5.30;99.90;;;;;;5008775;28;20050;-62
2021/12/24 11:18:55;;;;;;;103.22;10.35;;;5.40;99.90;;;;;;5021584;28;20050;-66
2021/12/24 11:21:26;;;;;;;93.63;8.90;;;5.40;99.90;;;;;;5010731;28;20477;-63
2021/12/24 11:23:55;;;;;;;93.03;9.43;;;5.50;99.90;;;;;;5024202;28;20045;-64
2021/12/24 11:26:27;;;;;;;83.13;8.37;;;5.50;99.90;;;;;;5018119;28;20385;-64
2021/12/24 11:28:55;;;;;;;71.50;9.52;;;5.50;99.90;;;;;;5011690;28;20038;-61
2021/12/24 11:31:29;;;;;;;57.95;8.02;;;5.60;99.90;;;;;;5009308;28;20042;-62
2021/12/24 11:33:58;;;;;;;97.18;11.68;;;5.70;99.90;;;;;;5018844;28;20080;-61
2021/12/24 11:36:28;;;;;;;54.85;8.57;;;5.70;99.90;;;;;;5010975;28;20034;-62
2021/12/24 11:39:06;;;;;;;61.65;10.25;;;5.70;99.90;;;;;;5009970;28;20050;-63
2021/12/24 11:41:36;;;;;;;60.75;14.10;;;5.80;99.90;;;;;;5021155;28;20041;-61
2021/12/24 11:44:07;;;;;;;88.05;14.68;;;5.90;99.90;;;;;;5025848;28;20049;-62
2021/12/24 11:46:40;;;;;;;81.70;16.27;;;5.90;99.90;;;;;;5012202;28;20552;-62
2021/12/24 11:49:08;;;;;;;88.82;17.73;;;6.00;99.90;;;;;;5022807;28;20217;-61
2021/12/24 11:51:40;;;;;;;65.95;11.60;;;6.00;99.90;;;;;;5020769;28;20052;-61
2021/12/24 11:54:10;;;;;;;67.82;12.45;;;6.00;99.90;;;;;;5008092;28;20053;-64
2021/12/24 11:56:46;;;;;;;106.50;20.73;;;6.10;99.90;;;;;;5027445;28;20466;-61
2021/12/24 11:59:14;;;;;;;68.32;12.15;;;6.10;99.90;;;;;;5026997;28;20298;-61
2021/12/24 12:01:44;;;;;;;50.22;12.15;;;6.10;99.90;;;;;;5027596;28;20045;-61
2021/12/24 12:04:18;;;;;;;61.40;15.30;;;6.20;99.90;;;;;;5026965;28;20049;-61
2021/12/24 12:06:46;;;;;;;67.53;15.02;;;6.10;99.90;;;;;;5012014;28;20061;-61
2021/12/24 12:09:14;;;;;;;42.67;11.60;;;6.10;99.90;;;;;;5024310;28;20150;-61
2021/12/24 12:11:56;;;;;;;79.35;17.10;;;6.20;99.90;;;;;;5020633;28;20069;-61
2021/12/24 12:14:27;;;;;;;81.85;25.08;;;6.20;99.90;;;;;;5016228;28;20049;-65
2021/12/24 12:16:57;;;;;;;107.88;23.10;;;6.20;99.90;;;;;;5009399;28;20057;-61
2021/12/24 12:24:57;;;;;;;130.90;40.17;;;6.30;99.90;;;;;;5029702;28;20054;-61
2021/12/24 12:27:37;;;;;;;117.85;31.52;;;6.30;99.90;;;;;;5030296;28;20393;-61
2021/12/24 12:30:36;;;;;;;83.30;21.45;;;6.30;99.90;;;;;;5029827;28;20276;-61
2021/12/24 12:33:06;;;;;;;94.05;20.90;;;6.30;99.90;;;;;;5027967;28;20489;-61
2021/12/24 12:35:36;;;;;;;84.47;21.27;;;6.30;99.90;;;;;;5025116;28;20038;-61
2021/12/24 12:38:39;;;;;;;89.83;23.47;;;6.30;99.90;;;;;;5014565;28;20269;-61
2021/12/24 12:41:38;;;;;;;87.47;24.33;;;6.30;99.90;;;;;;5028088;28;20646;-62
2021/12/24 12:44:18;;;;;;;96.38;24.50;;;6.30;99.90;;;;;;5027863;28;20048;-62
2021/12/24 12:46:47;;;;;;;108.95;21.77;;;6.40;99.90;;;;;;5028188;28;20231;-61
2021/12/24 12:49:28;;;;;;;84.88;20.70;;;6.40;99.90;;;;;;5027786;28;20041;-61
2021/12/24 12:52:01;;;;;;;85.00;19.13;;;6.40;99.90;;;;;;5015337;28;20050;-61
2021/12/24 12:54:35;;;;;;;82.63;18.70;;;6.40;99.90;;;;;;5010154;28;20053;-61
2021/12/24 12:57:18;;;;;;;91.18;19.13;;;6.40;99.90;;;;;;5009949;28;20481;-61
2021/12/24 13:00:07;;;;;;;66.75;17.35;;;6.40;99.90;;;;;;5009790;28;20092;-61
2021/12/24 13:02:58;;;;;;;77.53;19.60;;;6.50;99.90;;;;;;5013334;28;20052;-60
2021/12/24 13:05:29;;;;;;;64.78;18.67;;;6.50;99.90;;;;;;5027212;28;20045;-65
2021/12/24 13:08:09;;;;;;;69.25;18.13;;;6.50;99.90;;;;;;5016736;28;20319;-65
2021/12/24 13:10:36;;;;;;;62.50;15.52;;;6.50;99.90;;;;;;5029650;28;20045;-65
2021/12/24 13:13:06;;;;;;;68.90;15.20;;;6.50;99.90;;;;;;5027978;28;20045;-66
2021/12/24 13:15:45;;;;;;;55.38;15.13;;;6.50;99.90;;;;;;5029475;28;20050;-62
2021/12/24 13:18:29;;;;;;;62.45;15.43;;;6.60;99.90;;;;;;5029262;28;20057;-63
2021/12/24 13:23:48;;;;;;;57.00;14.60;;;6.60;99.90;;;;;;5007238;28;20065;-61
2021/12/24 13:26:19;;;;;;;54.92;14.85;;;6.70;99.90;;;;;;5029003;28;20045;-61
2021/12/24 13:29:00;;;;;;;62.17;16.83;;;6.60;99.90;;;;;;5011428;28;20048;-61
2021/12/24 13:31:30;;;;;;;50.22;13.45;;;6.70;99.90;;;;;;5028345;28;20052;-61
2021/12/24 13:33:58;;;;;;;47.08;13.32;;;6.70;99.90;;;;;;5028786;28;20048;-61
2021/12/24 13:36:28;;;;;;;41.83;12.77;;;6.70;99.90;;;;;;5033999;28;20396;-61
2021/12/24 13:39:06;;;;;;;;;;;6.70;99.90;;;;;;5045655;28;20056;-61
2021/12/24 13:41:35;;;;;;;54.72;14.98;;;6.70;99.90;;;;;;5068613;28;19920;-61
2021/12/24 13:44:03;;;;;;;59.97;14.07;;;6.70;99.90;;;;;;5050934;28;20270;-61
2021/12/24 13:46:33;;;;;;;55.78;15.63;;;6.70;99.90;;;;;;5067736;28;20484;-63
2021/12/24 13:54:33;;;;;;;65.18;16.05;;;6.70;99.90;;;;;;5082800;28;20518;-62
2021/12/24 13:57:06;;;;;;;63.50;15.63;;;6.70;99.90;;;;;;5068316;28;20041;-63
2021/12/24 13:59:34;;;;;;;48.45;14.15;;;6.70;99.90;;;;;;5050132;28;20064;-65
2021/12/24 14:02:09;;;;;;;41.45;12.98;;;6.70;99.90;;;;;;5068154;28;20037;-64
2021/12/24 14:04:37;;;;;;;36.90;11.95;;;6.60;99.90;;;;;;5068449;28;20398;-65
2021/12/24 14:07:05;;;;;;;33.03;11.02;;;6.60;99.90;;;;;;5056940;28;20056;-64
2021/12/24 14:09:33;;;;;;;35.65;11.65;;;6.60;99.90;;;;;;5049230;28;20062;-64
2021/12/24 14:12:06;;;;;;;39.00;11.02;;;6.60;99.90;;;;;;5068166;28;20408;-63
2021/12/24 14:15:26;;;;;;;41.88;10.98;;;6.50;99.90;;;;;;5068248;28;20068;-62
2021/12/24 14:18:06;;;;;;;48.30;15.60;;;6.40;99.90;;;;;;5060028;28;20052;-58
2021/12/24 14:23:37;;;;;;;40.20;11.85;;;6.30;99.90;;;;;;5018012;28;20049;-62
2021/12/24 14:26:05;;;;;;;35.63;11.32;;;6.30;99.90;;;;;;5048423;28;20044;-62
2021/12/24 14:28:33;;;;;;;42.15;14.70;;;6.30;99.90;;;;;;5058934;28;20041;-65
2021/12/24 14:31:04;;;;;;;34.63;12.50;;;6.20;99.90;;;;;;5050115;28;20056;-61
2021/12/24 14:33:35;;;;;;;37.88;13.15;;;6.20;99.90;;;;;;5067688;28;20041;-65
2021/12/24 14:36:04;;;;;;;35.60;12.35;;;6.20;99.90;;;;;;5067040;28;20056;-65
2021/12/24 14:38:33;;;;;;;33.73;9.93;;;6.20;99.90;;;;;;5058819;28;20044;-63
2021/12/24 14:41:00;;;;;;;38.10;10.93;;;6.20;99.90;;;;;;5067564;28;20057;-61
2021/12/24 14:43:34;;;;;;;42.38;13.05;;;6.10;99.90;;;;;;5069659;28;20044;-64
2021/12/24 14:46:08;;;;;;;36.13;12.68;;;6.10;99.90;;;;;;5072093;28;20404;-62
2021/12/24 14:48:36;;;;;;;35.15;8.77;;;6.10;99.90;;;;;;5072068;28;20045;-63
2021/12/24 14:51:07;;;;;;;32.03;8.75;;;6.10;99.90;;;;;;5072065;28;20052;-64
2021/12/24 14:53:40;;;;;;;33.08;8.73;;;6.10;99.90;;;;;;5064625;28;20131;-63
2021/12/24 14:56:12;;;;;;;30.15;8.05;;;6.00;99.90;;;;;;5053941;28;20048;-63
2021/12/24 14:59:06;;;;;;;28.02;9.30;;;6.00;99.90;;;;;;5070886;28;20063;-64
2021/12/24 15:01:42;;;;;;;32.63;8.48;;;6.10;99.90;;;;;;5071127;28;20063;-62
2021/12/24 15:04:12;;;;;;;31.77;9.50;;;6.10;99.90;;;;;;5071243;28;20045;-62
2021/12/24 15:06:50;;;;;;;28.70;9.40;;;6.10;99.90;;;;;;5068416;28;20041;-65
2021/12/24 15:09:24;;;;;;;31.20;8.63;;;6.10;99.90;;;;;;5068675;28;20036;-61
2021/12/24 15:11:54;;;;;;;31.33;9.02;;;6.20;99.90;;;;;;5071862;28;20052;-62